Tiempo atmosférico en la estación meteorológica de Castuera , Badajoz (512 m.)



Fecha
DESCASC
Temp. máxima en grados centígrados (hora)
DESCASC
Temp. mínima en grados centígrados (hora)
DESCASC
Temp. media en grados centígrados
DESCASC
Racha de viento máxima en m/sg (hora)
DESCASC
Velocidad máxima media en intervalos de 10 minutos(hora)
DESCASC
Precipitaciones diarias en mm
DESCASC
Precipitaciones de 00:00 a 06:00 en mm
DESCASC
Precipitaciones de 06:00 a 12:00 en mm
DESCASC
Precipitaciones de 12:00 a 18:00 en mm
DESCASC
Precipitaciones de 18:00 a 24:00 en mm
DESCASC
25-02-2021 14.1 (15:10) 8.6 (08:40) 11.4 15.83 (04:30) 12.5 (03:30) 0 0 0 0 0
24-02-2021 17.9 (15:50) 5.6 (07:40) 11.7 11.39 (14:00) 7.22 (15:10) 0 0 0 0 0
23-02-2021 15.4 (16:30) 3 (08:00) 9.2 7.78 (14:20) 5.83 (14:30) 0 0 0 0 0
22-02-2021 12.5 (16:20) 3.8 (07:50) 8.1 9.17 (00:20) 6.94 (00:10) 0 0 0 0 0
21-02-2021 13.6 (00:10) 6.2 (00:00) 9.9 18.06 (03:40) 10.83 (03:40) 7.4 0 3.8 3.6 0
20-02-2021 16.8 (15:20) 10.7 (00:00) 13.7 19.72 (06:20) 14.72 (06:40) 0 0 0 0 0
19-02-2021 18.9 (15:50) 8.5 (00:00) 13.7 12.5 (13:30) 8.33 (22:00) 0 0 0 0 0
18-02-2021 18.7 (16:10) 8.5 (00:00) 13.6 6.39 (13:50) 4.17 (01:30) 0 0 0 0 0
17-02-2021 20.9 (17:20) 8 (00:00) 14.4 5.56 (22:40) 4.72 (22:40) 0 0 0 0 0
16-02-2021 18.1 (15:30) 6.7 (00:00) 12.4 9.17 (05:30) 5.28 (09:50) 0 0 0 0 0
15-02-2021 17.7 (15:30) 9.2 (00:00) 13.5 13.61 (02:50) 10.28 (02:50) 0 0 0 0 0
14-02-2021 18.8 (16:10) 5.7 (00:00) 12.2 7.22 (22:00) 5.83 (21:50) 0 0 0 0 0
13-02-2021 16.1 (16:50) 7.6 (00:00) 11.9 6.67 (00:30) 5 (00:10) 0 0 0 0 0
12-02-2021 14.7 (17:10) 9.2 (00:00) 11.9 13.89 (06:10) 10 (06:10) 4 3.2 0.8 0 0
11-02-2021 15.2 (15:10) 10.8 (00:00) 13 6.11 (23:59) 3.61 (16:00) 0.6 0.2 0 0.2 0.2
10-02-2021 12.3 (23:50) 8.7 (00:00) 10.5 11.39 (01:30) 7.22 (01:30) 4.6 1 3.4 0 0.2
09-02-2021 11.4 (12:00) 8.1 (00:00) 9.8 17.78 (14:40) 12.22 (13:30) 6.8 0 0 5.4 1.4
08-02-2021 12 (14:40) 7.5 (00:00) 9.8 15.28 (03:20) 11.67 (03:30) 3.8 3.8 0 0 0
07-02-2021 9.7 (13:30) 5.2 (00:00) 7.4 12.5 (23:59) 8.61 (23:59) 0 0 0 0 0
06-02-2021 11.5 (15:00) 7 (00:00) 9.3 9.17 (02:40) 5.56 (02:40) 2.4 0.2 0 2.2 0
05-02-2021 12.7 (12:30) 8.4 (00:00) 10.5 10.56 (20:50) 6.67 (21:40) 5.6 0 0 5 0.6
04-02-2021 14.1 (14:00) 9.1 (00:00) 11.6 10.28 (13:00) 7.5 (13:00) 0.4 0.2 0.2 0 0
03-02-2021 16.8 (15:40) 9.1 (00:00) 12.9 8.89 (19:40) 6.39 (20:40) 0 0 0 0 0
02-02-2021 14.1 (14:40) 9.2 (00:00) 11.7 6.11 (13:40) 4.17 (06:30) 0 0 0 0 0
01-02-2021 12.5 (17:30) 9.1 (00:00) 10.8 9.44 (06:30) 6.39 (00:40) 0.2 0.2 0 0 0
31-01-2021 12.7 (17:40) 7.7 (00:00) 10.2 11.67 (13:10) 6.67 (11:50) 0.8 0 0.2 0 0.6
30-01-2021 13.4 (15:20) 8.3 (00:00) 10.8 15.28 (14:30) 10.56 (14:30) 0.8 0 0.8 0 0

Gráficas

Temp. máximas Temp. mínimas Temp. medias Precipitaciones Rachas de viento máximas Velocidades máximas media en intervalos de 10 minutos

Datos horarios

Fecha y hora oficial Temperatura (ºC) Velocidad del viento (km/h) Dirección del viento Racha (km/h) Dirección de racha Precipitación (mm) Presión (hPa) Tendencia (hPa) Humedad (%)
2021-02-16 12:00:00 -- -- -- -- -- -- -- -- --
2021-02-16 11:00:00 13.6 13 Sudeste 30 Sudeste 0 -- -- 56
2021-02-16 10:00:00 11.2 20 Sudeste 30 Sudeste 0 -- -- 60
2021-02-16 09:00:00 9.7 15 Sudeste 38 Sudeste 0 -- -- 63
2021-02-16 08:00:00 9.6 27 Sudeste 46 Sudeste 0 -- -- 63
2021-02-16 07:00:00 9.9 27 Sudeste 54 Sudeste 0 -- -- 61
2021-02-16 06:00:00 10.2 30 Sudeste 55 Sudeste 0 -- -- 60
2021-02-16 05:00:00 10.3 34 Sudeste 49 Sudeste 0 -- -- 62
2021-02-16 04:00:00 10.3 33 Sudeste 50 Sudeste 0 -- -- 63
2021-02-16 03:00:00 10.8 25 Sudeste 48 Sudeste 0 -- -- 62
2021-02-16 02:00:00 11.3 27 Sudeste 46 Sudeste 0 -- -- 60
2021-02-16 01:00:00 11.5 27 Sudeste 49 Sudeste 0 -- -- 63
2021-02-16 00:00:00 11.5 24 Sudeste 46 Sudeste 0 -- -- 65
2021-02-15 23:00:00 11.6 21 Sudeste 39 Sudeste 0 -- -- 69
2021-02-15 22:00:00 11.8 21 Sudeste 39 Sudeste 0 -- -- 72
2021-02-15 21:00:00 12.3 18 Sudeste 32 Sudeste 0 -- -- 69
2021-02-15 20:00:00 13.4 19 Sudeste 31 Sudeste 0 -- -- 64
2021-02-15 19:00:00 14.9 12 Sudeste 22 Sudeste 0 -- -- 60
2021-02-15 18:00:00 17.2 16 Sudeste 30 Sur 0 -- -- 51
2021-02-15 17:00:00 18.7 15 Sur 32 Sudeste 0 -- -- 48
2021-02-15 16:00:00 18.5 20 Sudeste 36 Sudeste 0 -- -- 47
2021-02-15 15:00:00 18.3 22 Sudeste 38 Sudeste 0 -- -- 49
2021-02-15 14:00:00 17.4 21 Sudeste 38 Sudeste 0 -- -- 49
2021-02-15 13:00:00 16.4 23 Sudeste 37 Sudeste 0 -- -- 56
2021-02-15 12:00:00 14.4 19 Sudeste 35 Sudeste 0 -- -- 64
2021-02-15 11:00:00 12.4 18 Sudeste 36 Sudeste 0 -- -- 67
2021-02-15 10:00:00 10.5 24 Sudeste 41 Sudeste 0 -- -- 70
2021-02-15 09:00:00 8.9 27 Sudeste 42 Sudeste 0 -- -- 75
2021-02-15 08:00:00 8.9 27 Sudeste 43 Sudeste 0 -- -- 75
2021-02-15 07:00:00 9.2 24 Sudeste 39 Sudeste 0 -- -- 74
2021-02-15 06:00:00 10.2 24 Sudeste 37 Sudeste 0 -- -- 70
2021-02-15 05:00:00 10.6 23 Sudeste 41 Sudeste 0 -- -- 66
2021-02-15 04:00:00 10.5 23 Sudeste 37 Sudeste 0 -- -- 65
2021-02-15 03:00:00 11.1 23 Sudeste 36 Sudeste 0 -- -- 63
2021-02-15 02:00:00 11.7 22 Sudeste 33 Sudeste 0 -- -- 60
2021-02-15 01:00:00 12.5 17 Sudeste 29 Sudeste 0 -- -- 57
2021-02-15 00:00:00 12.8 14 Sudeste 20 Sudeste 0 -- -- 53
2021-02-14 23:00:00 13.3 12 Sudeste 19 Sudeste 0 -- -- 58
2021-02-14 22:00:00 13.8 12 Sudeste 19 Sudeste 0 -- -- 58
2021-02-14 21:00:00 14.5 9 Sudeste 20 Sudeste 0 -- -- 52
2021-02-14 20:00:00 16.3 11 Este 13 Este 0 -- -- 52
2021-02-14 19:00:00 16.9 7 Este 14 Sudeste 0 -- -- 51
2021-02-14 18:00:00 18.6 7 Sudeste 16 Sudeste 0 -- -- 51
2021-02-14 17:00:00 19 10 Sur 18 Sudeste 0 -- -- 47
2021-02-14 16:00:00 19.3 10 Sur 21 Sudeste 0 -- -- 52
2021-02-14 15:00:00 19.3 12 Sudeste 23 Sudeste 0 -- -- 47
2021-02-14 14:00:00 18.7 11 Sudeste 23 Nordeste 0 -- -- 46
2021-02-14 13:00:00 16.1 3 Noroeste 21 Sudeste 0 -- -- 64
2021-02-14 12:00:00 15.2 13 Sudeste 28 Sudeste 0 -- -- 61
2021-02-14 11:00:00 13.2 11 Sudeste 20 Sudeste 0 -- -- 67
2021-02-14 10:00:00 9.8 2 Norte 21 Este 0 -- -- 81
2021-02-14 09:00:00 8.6 2 Noroeste 17 Sudeste 0 -- -- 79
2021-02-14 08:00:00 7.7 4 Este 27 Sudeste 0 -- -- 78
2021-02-14 07:00:00 8.4 10 Sudeste 23 Este 0 -- -- 83
2021-02-14 06:00:00 8.4 4 Sudeste 9 Sudeste 0 -- -- 82
2021-02-14 05:00:00 10 2 Sur 9 Este 0 -- -- 76
2021-02-14 04:00:00 10.5 4 Sudeste 10 Sudeste 0 -- -- 73
2021-02-14 03:00:00 10.8 3 Sudeste 5 Sudeste 0 -- -- 69
2021-02-14 02:00:00 10.5 0 Calma 7 Sudeste 0 -- -- 62
2021-02-14 01:00:00 11 0 Calma 8 Este 0 -- -- 57
2021-02-14 00:00:00 11.3 5 Nordeste 8 Nordeste 0 -- -- 52
2021-02-13 23:00:00 11.5 2 Nordeste 6 Nordeste 0 -- -- 53
2021-02-13 22:00:00 11.7 4 Nordeste 6 Norte 0 -- -- 57
2021-02-13 21:00:00 12 5 Nordeste 12 Nordeste 0 -- -- 53
2021-02-13 20:00:00 12.5 9 Nordeste 12 Nordeste 0 -- -- 58
2021-02-13 19:00:00 13.6 5 Norte 9 Norte 0 -- -- 60
2021-02-13 18:00:00 15 5 Norte 10 Oeste 0 -- -- 62
2021-02-13 17:00:00 15.6 5 Noroeste 13 Noroeste 0 -- -- 63
2021-02-13 16:00:00 15.6 8 Norte 16 Noroeste 0 -- -- 66
2021-02-13 15:00:00 15.1 6 Noroeste 16 Noroeste 0 -- -- 71
2021-02-13 14:00:00 14.4 5 Oeste 16 Noroeste 0 -- -- 70
2021-02-13 13:00:00 13.7 6 Oeste 11 Oeste 0 -- -- 67
2021-02-13 08:00:00 -- -- -- -- -- -- -- -- --
2021-02-13 07:00:00 7.7 0 Calma 4 Sur 0 -- -- 91
2021-02-13 06:00:00 8 0 Calma 5 Sudeste 0 -- -- 90
2021-02-13 05:00:00 7.9 3 Sudeste 8 Sur 0 -- -- 90
2021-02-13 04:00:00 8.5 0 Calma 4 Sudeste 0 -- -- 88
2021-02-13 03:00:00 9.1 0 Calma 7 Noroeste 0 -- -- 85
2021-02-13 02:00:00 9.1 0 Calma 6 Sudeste 0 -- -- 86
2021-02-13 01:00:00 8.9 3 Sur 9 Sur 0 -- -- 87
2021-02-13 00:00:00 9.2 6 Sur 10 Sur 0 -- -- 87
2021-02-12 23:00:00 9.9 0 Calma 8 Norte 0 -- -- 85
2021-02-12 22:00:00 10 0 Calma 6 Sudeste 0 -- -- 85
2021-02-12 21:00:00 10.6 3 Sur 8 Noroeste 0 -- -- 83
2021-02-12 20:00:00 11.6 4 Norte 12 Noroeste 0 -- -- 79
2021-02-12 19:00:00 12.7 6 Noroeste 14 Noroeste 0 -- -- 77
2021-02-12 18:00:00 13.4 8 Noroeste 23 Noroeste 0 -- -- 76
2021-02-12 17:00:00 14.7 13 Noroeste 27 Noroeste 0 -- -- 65
2021-02-12 16:00:00 14.7 13 Noroeste 24 Noroeste 0 -- -- 67
2021-02-12 15:00:00 13.7 13 Noroeste 32 Noroeste 0 -- -- 69
2021-02-12 14:00:00 12.9 14 Noroeste 33 Oeste 0 -- -- 74
2021-02-12 13:00:00 12.9 19 Noroeste 31 Oeste 0 -- -- 76
2021-02-12 12:00:00 11.5 17 Noroeste 32 Oeste 0 -- -- 85
2021-02-12 11:00:00 10.6 18 Oeste 29 Oeste 0 -- -- 91
2021-02-12 10:00:00 9.7 11 Oeste 18 Noroeste 0 -- -- 96
2021-02-12 09:00:00 9 5 Noroeste 19 Oeste 0 -- -- 96
2021-02-12 08:00:00 9.6 12 Noroeste 28 Oeste 0 -- -- 97
2021-02-12 07:00:00 10.1 13 Oeste 44 Oeste 1.2 -- -- 95
2021-02-12 06:00:00 11.3 12 Oeste 28 Sudoeste 4.6 -- -- 98
2021-02-12 05:00:00 11.6 17 Sudoeste 29 Sudoeste 0 -- -- 94
2021-02-12 04:00:00 11.5 14 Sudoeste 24 Sur 0 -- -- 93
2021-02-12 03:00:00 11.4 13 Sur 18 Sur 0 -- -- 93
2021-02-12 02:00:00 11.8 10 Sur 16 Sur 0 -- -- 93
2021-02-12 01:00:00 12.1 10 Sur 17 Sur 0 -- -- 93
2021-02-12 00:00:00 12.5 12 Sur 22 Sur 0 -- -- 92
2021-02-11 23:00:00 12.4 13 Sudeste 17 Sudeste 0 -- -- 93
2021-02-11 22:00:00 12.6 8 Sudeste 10 Sur 0 -- -- 93
2021-02-11 21:00:00 12.8 9 Sudoeste 15 Sur 0 -- -- 94
2021-02-11 20:00:00 13.1 10 Sur 13 Sudeste 0 -- -- 92
2021-02-11 19:00:00 13.2 0 Calma 4 Sur 0.2 -- -- 92
2021-02-11 18:00:00 13.7 0 Calma 11 Noroeste 0.2 -- -- 92
2021-02-11 17:00:00 14.5 4 Oeste 14 Oeste 0 -- -- 83
2021-02-11 16:00:00 14.5 13 Oeste 20 Oeste 0 -- -- 83
2021-02-11 15:00:00 15 4 Oeste 11 Oeste 0 -- -- 84
2021-02-11 14:00:00 14.6 3 Sur 10 Sur 0 -- -- 86
2021-02-11 13:00:00 14.8 7 Sur 14 Sudoeste 0 -- -- 83
2021-02-11 12:00:00 14.1 7 Sudoeste 17 Sudoeste 0 -- -- 89
2021-02-11 11:00:00 12.6 10 Sur 18 Sudeste 0 -- -- 93
2021-02-11 10:00:00 11.1 10 Sur 14 Sur 0 -- -- 99
2021-02-11 09:00:00 10.8 10 Sudoeste 18 Sudoeste 0 -- -- 99
2021-02-11 08:00:00 11.2 9 Sur 17 Sudoeste 0 -- -- 98
2021-02-11 07:00:00 11.2 12 Sur 15 Sur 0 -- -- 99
2021-02-11 06:00:00 11.5 9 Sur 13 Sudoeste 0.2 -- -- 99
2021-02-11 05:00:00 11.7 3 Sudoeste 13 Sudoeste 0 -- -- 98
2021-02-11 04:00:00 11.8 4 Sur 9 Sur 0 -- -- 99
2021-02-11 03:00:00 12 3 Sudoeste 10 Sur 0 -- -- 99
2021-02-11 02:00:00 12.1 5 Sudoeste 12 Sur 0 -- -- 98
2021-02-11 01:00:00 12.2 10 Sur 14 Sur 0 -- -- 99
2021-02-11 00:00:00 12.2 8 Sur 16 Sudoeste 0.2 -- -- 98
2021-02-10 23:00:00 11.7 8 Sudeste 13 Sudeste 0 -- -- 99
2021-02-10 22:00:00 11.5 4 Sudeste 6 Sudeste 0 -- -- 99
2021-02-10 21:00:00 11.6 3 Oeste 14 Oeste 0 -- -- 98
2021-02-10 20:00:00 11.7 5 Oeste 13 Sudoeste 0 -- -- 96
2021-02-10 19:00:00 11.6 7 Sudoeste 12 Oeste 0 -- -- 95
2021-02-10 18:00:00 11.7 8 Oeste 14 Oeste 0 -- -- 93
2021-02-10 17:00:00 11.5 6 Oeste 15 Oeste 0 -- -- 93
2021-02-10 16:00:00 11.8 8 Oeste 21 Oeste 0 -- -- 90
2021-02-10 15:00:00 12 18 Oeste 31 Noroeste 0 -- -- 88
2021-02-10 14:00:00 11.7 19 Oeste 29 Oeste 0 -- -- 86
2021-02-10 13:00:00 10.7 11 Noroeste 32 Noroeste 0 -- -- 92
2021-02-10 12:00:00 10.7 23 Noroeste 34 Oeste 0 -- -- 90
2021-02-10 11:00:00 10.4 22 Oeste 33 Oeste 0 -- -- 97
2021-02-10 10:00:00 9.6 16 Oeste 26 Oeste 0.8 -- -- 100
2021-02-10 09:00:00 9.3 13 Oeste 26 Oeste 1 -- -- 99
2021-02-10 08:00:00 9.4 14 Oeste 23 Sudoeste 0.8 -- -- 100
2021-02-10 07:00:00 9.4 16 Oeste 28 Oeste 0.8 -- -- 98
2021-02-10 06:00:00 10 16 Oeste 27 Oeste 0.8 -- -- 95
2021-02-10 05:00:00 9.7 18 Sudoeste 33 Sudoeste 0.2 -- -- 95
2021-02-10 04:00:00 9.8 22 Sudoeste 36 Sudoeste 0 -- -- 89
2021-02-10 03:00:00 9.3 22 Sudoeste 35 Sudoeste 0 -- -- 85
2021-02-10 02:00:00 9.1 21 Sudoeste 41 Sudoeste 0 -- -- 87
2021-02-10 01:00:00 8.7 19 Sudoeste 28 Sudoeste 0 -- -- 91
2021-02-10 00:00:00 8.9 15 Sudoeste 32 Sudoeste 0 -- -- 90
2021-02-09 23:00:00 9.5 20 Sudoeste 31 Oeste 0 -- -- 91
2021-02-09 22:00:00 9.7 19 Sudoeste 31 Sudoeste 0 -- -- 90
2021-02-09 21:00:00 9.7 13 Sudoeste 26 Sudoeste 1 -- -- 94
2021-02-09 20:00:00 10.2 11 Sudoeste 33 Oeste 0.2 -- -- 96
2021-02-09 19:00:00 10.6 22 Sudoeste 36 Oeste 0.2 -- -- 94
2021-02-09 18:00:00 10.2 18 Sudoeste 27 Sudoeste 0.4 -- -- 99
2021-02-09 17:00:00 9.7 20 Oeste 42 Oeste 0.8 -- -- 96
2021-02-09 16:00:00 10.6 31 Oeste 51 Sudoeste 1.6 -- -- 95
2021-02-09 15:00:00 10.9 39 Sudoeste 64 Sudoeste 0.4 -- -- 93
2021-02-09 14:00:00 10.4 41 Sudoeste 63 Sur 1.4 -- -- 93
2021-02-09 13:00:00 10.5 34 Sudoeste 58 Sur 0.8 -- -- 93
2021-02-09 12:00:00 11.4 40 Sudoeste 60 Sudoeste 0 -- -- 82
2021-02-09 11:00:00 10.9 36 Sur 51 Sudoeste 0 -- -- 84
2021-02-09 10:00:00 10.4 32 Sudoeste 48 Sudoeste 0 -- -- 84
2021-02-09 09:00:00 9.8 29 Sur 46 Sur 0 -- -- 83
2021-02-09 08:00:00 9.3 26 Sur 41 Sur 0 -- -- 82
2021-02-09 07:00:00 9.6 21 Sudoeste 48 Sudoeste 0 -- -- 81
2021-02-09 06:00:00 9.3 27 Sudoeste 37 Sudoeste 0 -- -- 85
2021-02-09 05:00:00 8.8 20 Sur 32 Sudoeste 0 -- -- 88
2021-02-09 04:00:00 8.5 23 Sudoeste 33 Sur 0 -- -- 90
2021-02-09 03:00:00 8.4 19 Sur 29 Sur 0 -- -- 91
2021-02-09 02:00:00 8.2 14 Sur 24 Sur 0 -- -- 90
2021-02-09 01:00:00 8.2 12 Sur 21 Sudoeste 0 -- -- 89
2021-02-09 00:00:00 8.4 14 Sur 24 Sudoeste 0 -- -- 91
2021-02-08 23:00:00 8.3 11 Sur 18 Sudoeste 0 -- -- 82
2021-02-08 22:00:00 8.8 11 Sudoeste 19 Sudoeste 0 -- -- 79
2021-02-08 21:00:00 8.9 10 Sudoeste 16 Sudoeste 0 -- -- 81
2021-02-08 20:00:00 9.4 10 Oeste 23 Oeste 0 -- -- 82
2021-02-08 19:00:00 9.6 12 Oeste 30 Oeste 0 -- -- 81
2021-02-08 18:00:00 10.4 23 Oeste 49 Sudoeste 0 -- -- 76
2021-02-08 17:00:00 10.1 23 Oeste 41 Oeste 0 -- -- 77
2021-02-08 16:00:00 10.7 20 Oeste 43 Oeste 0 -- -- 82
2021-02-08 15:00:00 10.8 29 Oeste 46 Oeste 0 -- -- 81
2021-02-08 14:00:00 11 24 Oeste 46 Oeste 0 -- -- 72
2021-02-08 13:00:00 11 30 Oeste 46 Oeste 0 -- -- 77
2021-02-08 12:00:00 10 27 Oeste 50 Oeste 0 -- -- 81
2021-02-08 11:00:00 8.9 22 Oeste 32 Oeste 0 -- -- 88
2021-02-08 10:00:00 8.3 19 Oeste 40 Oeste 0 -- -- 91
2021-02-08 09:00:00 7.7 19 Oeste 30 Oeste 0 -- -- 93
2021-02-08 08:00:00 7.9 19 Oeste 35 Noroeste 0 -- -- 91
2021-02-08 07:00:00 8 12 Oeste 31 Oeste 0 -- -- 94
2021-02-08 06:00:00 8.3 20 Oeste 49 Oeste 1 -- -- 93
2021-02-08 05:00:00 9.8 35 Oeste 54 Oeste 2.6 -- -- 92
2021-02-08 04:00:00 10.1 38 Sur 55 Sur 0.2 -- -- 89
2021-02-08 03:00:00 9.7 35 Sur 48 Sur 0 -- -- 89
2021-02-08 02:00:00 9.3 34 Sur 48 Sudoeste 0 -- -- 89
2021-02-08 01:00:00 8.4 31 Sur 43 Sur 0 -- -- 92
2021-02-08 00:00:00 8.6 31 Sur 45 Sur 0 -- -- 87
2021-02-07 23:00:00 8.5 21 Sur 35 Sur 0 -- -- 88
2021-02-07 22:00:00 8 20 Sur 28 Sur 0 -- -- 90
2021-02-07 21:00:00 8.2 14 Sudoeste 23 Sudoeste 0 -- -- 86
2021-02-07 20:00:00 8 13 Sudoeste 22 Oeste 0 -- -- 85
2021-02-07 19:00:00 7.9 12 Oeste 21 Oeste 0 -- -- 85
2021-02-07 18:00:00 7.8 19 Oeste 32 Oeste 0 -- -- 83
2021-02-07 17:00:00 8.5 23 Oeste 36 Oeste 0 -- -- 76
2021-02-07 16:00:00 9 24 Oeste 38 Sudoeste 0 -- -- 74
2021-02-07 15:00:00 8.9 26 Oeste 37 Oeste 0 -- -- 70
2021-02-07 14:00:00 8.9 21 Oeste 29 Oeste 0 -- -- 77
2021-02-07 13:00:00 9 14 Oeste 26 Oeste 0 -- -- 86
2021-02-07 12:00:00 7 15 Oeste 23 Oeste 0 -- -- 94
2021-02-07 11:00:00 6.3 14 Oeste 21 Oeste 0 -- -- 95
2021-02-07 10:00:00 5.5 13 Oeste 23 Oeste 0 -- -- 98
2021-02-07 09:00:00 5.3 6 Oeste 15 Oeste 0 -- -- 98
2021-02-07 08:00:00 5.7 9 Oeste 15 Oeste 0 -- -- 99
2021-02-07 07:00:00 5.9 4 Sudoeste 15 Oeste 0 -- -- 98
2021-02-07 06:00:00 7 10 Oeste 17 Oeste 0 -- -- 97
2021-02-07 05:00:00 7.7 6 Oeste 12 Oeste 0 -- -- 99
2021-02-07 04:00:00 7.7 5 Sur 8 Sur 0 -- -- 99
2021-02-07 03:00:00 7.6 2 Sudoeste 6 Sudoeste 0 -- -- 99
2021-02-07 02:00:00 7.4 4 Sudeste 7 Sudeste 0 -- -- 99
2021-02-07 01:00:00 7.2 0 Calma 10 Oeste 0 -- -- 98
2021-02-07 00:00:00 7.3 2 Oeste 9 Sur 0 -- -- 97
2021-02-06 23:00:00 7.1 5 Sur 9 Sur 0 -- -- 98
2021-02-06 22:00:00 7 4 Sur 6 Sur 0 -- -- 98
2021-02-06 21:00:00 7.5 4 Sudoeste 9 Sudoeste 0 -- -- 97
2021-02-06 20:00:00 8 2 Sudoeste 7 Oeste 0 -- -- 96
2021-02-06 19:00:00 8.3 5 Noroeste 13 Noroeste 0 -- -- 96
2021-02-06 18:00:00 8.8 7 Noroeste 13 Noroeste 0 -- -- 96
2021-02-06 17:00:00 9 7 Oeste 16 Noroeste 2.2 -- -- 94
2021-02-06 16:00:00 10.6 9 Oeste 16 Sudoeste 0 -- -- 85
2021-02-06 15:00:00 11.5 13 Sudoeste 21 Sudoeste 0 -- -- 83
2021-02-06 14:00:00 10.3 17 Sudoeste 24 Oeste 0 -- -- 85
2021-02-06 13:00:00 9.6 16 Sudoeste 24 Sudoeste 0 -- -- 88
2021-02-06 12:00:00 8.9 17 Sudoeste 30 Sur 0 -- -- 92
2021-02-06 11:00:00 8.8 17 Sudoeste 26 Sudoeste 0 -- -- 93
2021-02-06 10:00:00 8.2 14 Sur 21 Sur 0 -- -- 95
2021-02-06 09:00:00 8 12 Sudoeste 22 Sudoeste 0 -- -- 94
2021-02-06 08:00:00 7.7 14 Sur 21 Sudoeste 0 -- -- 94
2021-02-06 07:00:00 7.7 15 Sudoeste 24 Sudoeste 0 -- -- 96
2021-02-06 06:00:00 8.3 17 Oeste 26 Sur 0.2 -- -- 95
2021-02-06 05:00:00 9.1 17 Sur 26 Sur 0 -- -- 93
2021-02-06 04:00:00 8.9 13 Sur 26 Sur 0 -- -- 95
2021-02-06 03:00:00 8.9 16 Sur 33 Sur 0 -- -- 91
2021-02-06 02:00:00 9 13 Sudeste 24 Sudeste 0 -- -- 95
2021-02-06 01:00:00 9.3 13 Sudeste 28 Sur 0 -- -- 94
2021-02-06 00:00:00 9.2 12 Sur 29 Sur 0 -- -- 95
2021-02-05 23:00:00 9.3 16 Sur 30 Sur 0 -- -- 93
2021-02-05 22:00:00 9.6 18 Sur 37 Sur 0 -- -- 90
2021-02-05 21:00:00 9.8 23 Sur 38 Sudeste 0 -- -- 90
2021-02-05 20:00:00 9.8 17 Sur 36 Sur 0 -- -- 90
2021-02-05 19:00:00 9.4 11 Sudeste 27 Sur 0.6 -- -- 92
2021-02-05 18:00:00 9.5 9 Sudeste 24 Oeste 2.4 -- -- 96
2021-02-05 17:00:00 10 14 Oeste 26 Oeste 2.4 -- -- 95
2021-02-05 16:00:00 11.4 6 Norte 13 Noroeste 0 -- -- 85
2021-02-05 15:00:00 11.1 8 Noroeste 19 Noroeste 0 -- -- 89
2021-02-05 14:00:00 11.4 12 Norte 21 Norte 0.2 -- -- 87
2021-02-05 13:00:00 12.5 11 Norte 27 Norte 0 -- -- 79
2021-02-05 12:00:00 12.3 17 Nordeste 28 Nordeste 0 -- -- 79
2021-02-05 11:00:00 10.9 12 Nordeste 27 Nordeste 0 -- -- 86
2021-02-05 10:00:00 10 8 Norte 26 Nordeste 0 -- -- 94
2021-02-05 09:00:00 9.2 14 Nordeste 23 Nordeste 0 -- -- 96
2021-02-05 08:00:00 8.9 4 Sudoeste 9 Norte 0 -- -- 94
2021-02-05 07:00:00 9.4 3 Norte 28 Este 0 -- -- 91
2021-02-05 06:00:00 10.1 10 Nordeste 16 Norte 0 -- -- 89
2021-02-05 05:00:00 8.9 4 Oeste 10 Este 0 -- -- 97
2021-02-05 04:00:00 10.4 5 Oeste 10 Este 0 -- -- 90
2021-02-05 03:00:00 10.7 2 Sudeste 26 Este 0 -- -- 88
2021-02-05 02:00:00 10.2 5 Este 24 Este 0 -- -- 92
2021-02-05 01:00:00 9.2 6 Sudeste 14 Este 0 -- -- 98
2021-02-05 00:00:00 9.5 4 Noroeste 12 Este 0 -- -- 93
2021-02-04 23:00:00 10 4 Oeste 20 Este 0 -- -- 91
2021-02-04 22:00:00 9.2 7 Sudeste 14 Este 0 -- -- 99
2021-02-04 21:00:00 9.4 0 Calma 13 Nordeste 0 -- -- 96
2021-02-04 20:00:00 9.5 0 Calma 5 Norte 0 -- -- 96
2021-02-04 19:00:00 10 4 Norte 15 Noroeste 0 -- -- 95
2021-02-04 18:00:00 10.9 5 Noroeste 19 Oeste 0 -- -- 93
2021-02-04 17:00:00 12.9 16 Sudoeste 30 Sur 0 -- -- 83
2021-02-04 16:00:00 13.7 18 Sur 27 Sur 0 -- -- 75
2021-02-04 15:00:00 13.5 16 Sur 31 Sur 0 -- -- 75
2021-02-04 14:00:00 14.1 20 Sur 36 Sur 0 -- -- 74
2021-02-04 13:00:00 13.5 27 Sur 37 Sur 0 -- -- 75
2021-02-04 12:00:00 11.3 15 Sur 28 Sur 0 -- -- 83
2021-02-04 11:00:00 10.9 15 Sur 25 Sudeste 0 -- -- 90
2021-02-04 10:00:00 10.3 13 Sudeste 22 Sudeste 0 -- -- 93
2021-02-04 09:00:00 10.1 8 Sudeste 22 Sudeste 0 -- -- 95
2021-02-04 08:00:00 10.2 12 Sudeste 24 Sudeste 0 -- -- 95
2021-02-04 07:00:00 10.2 14 Sudeste 24 Sudeste 0.2 -- -- 96
2021-02-04 06:00:00 10.1 12 Sudeste 18 Este 0 -- -- 97
2021-02-04 05:00:00 9.6 10 Este 15 Nordeste 0.2 -- -- 98
2021-02-04 04:00:00 9.4 5 Nordeste 13 Este 0 -- -- 98
2021-02-04 03:00:00 9.4 5 Nordeste 12 Norte 0 -- -- 98
2021-02-04 02:00:00 10.5 6 Norte 12 Norte 0 -- -- 96
2021-02-04 01:00:00 11.5 5 Sur 19 Sur 0 -- -- 88
2021-02-04 00:00:00 11.5 12 Sudeste 21 Sur 0 -- -- 87
2021-02-03 23:00:00 11.4 13 Sur 26 Sur 0 -- -- 87
2021-02-03 22:00:00 11.3 17 Sur 28 Sur 0 -- -- 87
2021-02-03 21:00:00 11.3 21 Sur 32 Sur 0 -- -- 86
2021-02-03 20:00:00 11.8 22 Sur 32 Sur 0 -- -- 84
2021-02-03 19:00:00 12.3 21 Sur 31 Sur 0 -- -- 83
2021-02-03 18:00:00 13.5 19 Sur 28 Sur 0 -- -- 80
2021-02-03 17:00:00 15.2 21 Sur 28 Sudoeste 0 -- -- 75
2021-02-03 16:00:00 16.1 21 Sur 27 Sudoeste 0 -- -- 70
2021-02-03 15:00:00 16.2 19 Sur 29 Sudoeste 0 -- -- 69
2021-02-03 14:00:00 14.5 17 Sur 31 Sudeste 0 -- -- 77
2021-02-03 13:00:00 14.3 15 Sur 27 Sur 0 -- -- 75
2021-02-03 12:00:00 13.2 15 Sur 27 Sudeste 0 -- -- 78
2021-02-03 11:00:00 11.5 15 Sudeste 27 Sur 0 -- -- 84
2021-02-03 10:00:00 10.7 17 Sur 27 Sur 0 -- -- 83
2021-02-03 09:00:00 9.9 15 Sur 23 Sudeste 0 -- -- 86
2021-02-03 08:00:00 9.7 15 Sudeste 22 Sudeste 0 -- -- 90
2021-02-03 07:00:00 9.1 10 Sudeste 21 Sudeste 0 -- -- 88
2021-02-03 06:00:00 9.4 12 Sur 20 Sur 0 -- -- 87
2021-02-03 05:00:00 9.6 12 Sur 15 Sur 0 -- -- 90
2021-02-03 04:00:00 10.4 11 Sur 17 Sur 0 -- -- 94
2021-02-03 03:00:00 10.9 8 Sur 12 Sur 0 -- -- 92
2021-02-03 02:00:00 11 8 Sur 13 Sur 0 -- -- 91
2021-02-03 01:00:00 11 7 Sur 12 Sur 0 -- -- 91
2021-02-03 00:00:00 11 5 Sur 11 Sudeste 0 -- -- 92
2021-02-02 23:00:00 10.9 4 Sudeste 5 Sudeste 0 -- -- 92
2021-02-02 22:00:00 11.3 4 Nordeste 6 Oeste 0 -- -- 90
2021-02-02 21:00:00 11.7 3 Nordeste 9 Nordeste 0 -- -- 89
2021-02-02 20:00:00 11.9 8 Nordeste 10 Nordeste 0 -- -- 91
2021-02-02 19:00:00 12.8 3 Nordeste 5 Nordeste 0 -- -- 86
2021-02-02 18:00:00 13.4 0 Calma 4 Oeste 0 -- -- 82
2021-02-02 17:00:00 13.4 4 Noroeste 17 Oeste 0 -- -- 83
2021-02-02 16:00:00 13.9 8 Sur 22 Sudoeste 0 -- -- 80
2021-02-02 15:00:00 13.8 9 Sudoeste 17 Sur 0 -- -- 80
2021-02-02 14:00:00 13.3 10 Sur 22 Sudoeste 0 -- -- 83
2021-02-02 13:00:00 13.2 7 Sudoeste 18 Sudeste 0 -- -- 82
2021-02-02 12:00:00 12.3 10 Sur 18 Sur 0 -- -- 89
2021-02-02 11:00:00 11.3 12 Sudeste 22 Sudeste 0 -- -- 91
2021-02-02 10:00:00 10.3 13 Sudeste 19 Sudeste 0 -- -- 94
2021-02-02 09:00:00 9.8 11 Sudeste 17 Sudeste 0 -- -- 97
2021-02-02 08:00:00 9.7 10 Sudeste 19 Sur 0 -- -- 96
2021-02-02 07:00:00 9.8 12 Sudeste 21 Sudeste 0 -- -- 93
2021-02-02 06:00:00 10 12 Sudeste 17 Sudeste 0 -- -- 93
2021-02-02 05:00:00 10 6 Sudeste 10 Sur 0 -- -- 94
2021-02-02 04:00:00 9.6 2 Oeste 7 Sur 0 -- -- 94
2021-02-02 03:00:00 9.5 3 Sur 8 Sudoeste 0 -- -- 93
2021-02-02 02:00:00 9.3 4 Sur 8 Sur 0 -- -- 92
2021-02-02 01:00:00 9.4 6 Sur 13 Sur 0 -- -- 90
2021-02-02 00:00:00 9.2 6 Sur 14 Sur 0 -- -- 90
2021-02-01 23:00:00 9.1 10 Sur 13 Sur 0 -- -- 89
2021-02-01 22:00:00 9.5 2 Sur 9 Sudeste 0 -- -- 88
2021-02-01 21:00:00 10 6 Sudeste 8 Sudeste 0 -- -- 91
2021-02-01 20:00:00 10.5 3 Sudoeste 7 Noroeste 0 -- -- 88
2021-02-01 19:00:00 11.5 5 Noroeste 13 Oeste 0 -- -- 83
2021-02-01 18:00:00 12.4 8 Oeste 20 Noroeste 0 -- -- 80
2021-02-01 17:00:00 12.2 15 Oeste 30 Oeste 0 -- -- 82
2021-02-01 16:00:00 11.9 17 Oeste 28 Noroeste 0 -- -- 81
2021-02-01 15:00:00 11.9 13 Oeste 34 Noroeste 0 -- -- 84
2021-02-01 14:00:00 12.1 22 Oeste 34 Oeste 0 -- -- 83
2021-02-01 13:00:00 11.9 19 Oeste 31 Oeste 0 -- -- 82
2021-02-01 12:00:00 11.2 19 Oeste 30 Oeste 0 -- -- 85
2021-02-01 11:00:00 10.8 18 Oeste 30 Oeste 0 -- -- 89
2021-02-01 10:00:00 9.9 20 Oeste 28 Oeste 0 -- -- 92
2021-02-01 09:00:00 9.7 11 Oeste 31 Oeste 0 -- -- 94
2021-02-01 08:00:00 10.1 17 Oeste 30 Oeste 0 -- -- 91
2021-02-01 07:00:00 10.5 18 Oeste 34 Noroeste 0 -- -- 91
2021-02-01 06:00:00 10.9 21 Oeste 33 Oeste 0.2 -- -- 91
2021-02-01 05:00:00 11.2 13 Oeste 33 Oeste 0 -- -- 95
2021-02-01 04:00:00 11.2 13 Oeste 23 Oeste 0 -- -- 96
2021-02-01 03:00:00 11.2 10 Oeste 19 Oeste 0 -- -- 95
2021-02-01 02:00:00 11.6 10 Oeste 21 Oeste 0 -- -- 94
2021-02-01 01:00:00 12.3 13 Oeste 34 Oeste 0 -- -- 94
2021-02-01 00:00:00 12 13 Oeste 25 Oeste 0 -- -- 97
2021-01-31 23:00:00 12.1 19 Oeste 35 Oeste 0 -- -- 97
2021-01-31 22:00:00 12.3 17 Oeste 27 Oeste 0 -- -- 98
2021-01-31 21:00:00 12.2 15 Oeste 29 Oeste 0.4 -- -- 99
2021-01-31 20:00:00 12.3 17 Oeste 27 Oeste 0.2 -- -- 98
2021-01-31 19:00:00 12.5 17 Oeste 30 Sudoeste 0 -- -- 97
2021-01-31 18:00:00 12.6 21 Oeste 36 Oeste 0 -- -- 96
2021-01-31 17:00:00 12.4 16 Sudoeste 31 Sudoeste 0 -- -- 96
2021-01-31 16:00:00 12.2 17 Sudoeste 29 Sudoeste 0 -- -- 96
2021-01-31 15:00:00 11.7 21 Sudoeste 34 Sudoeste 0 -- -- 98
2021-01-31 14:00:00 11.7 24 Sudoeste 42 Sudoeste 0 -- -- 92
2021-01-31 13:00:00 11.8 15 Oeste 34 Oeste 0 -- -- 85
2021-01-31 12:00:00 11.2 21 Oeste 33 Oeste 0 -- -- 83
2021-01-31 11:00:00 10.1 16 Oeste 31 Oeste 0.2 -- -- 93
2021-01-31 10:00:00 9.4 19 Oeste 35 Oeste 0 -- -- 98
2021-01-31 09:00:00 9 17 Oeste 31 Oeste 0 -- -- 99
2021-01-31 08:00:00 9 16 Oeste 30 Oeste 0 -- -- 94
2021-01-31 07:00:00 8.3 14 Oeste 25 Oeste 0 -- -- 95
2021-01-31 06:00:00 8 12 Oeste 27 Oeste 0 -- -- 93
2021-01-31 05:00:00 7.7 15 Oeste 31 Oeste 0 -- -- 94
2021-01-31 04:00:00 7.9 13 Noroeste 29 Oeste 0 -- -- 92
2021-01-31 03:00:00 7.8 14 Oeste 32 Oeste 0 -- -- 93
2021-01-31 02:00:00 8 20 Oeste 32 Oeste 0 -- -- 90
2021-01-31 01:00:00 8.2 16 Oeste 32 Oeste 0 -- -- 90
2021-01-31 00:00:00 8.3 15 Oeste 32 Oeste 0 -- -- 88
2021-01-30 23:00:00 8.6 18 Oeste 35 Oeste 0 -- -- 85
2021-01-30 22:00:00 8.8 22 Oeste 39 Oeste 0 -- -- 82
2021-01-30 21:00:00 9.3 17 Oeste 30 Oeste 0 -- -- 77
2021-01-30 20:00:00 10 18 Oeste 37 Oeste 0 -- -- 71
2021-01-30 19:00:00 10.6 20 Oeste 43 Oeste 0 -- -- 68
2021-01-30 18:00:00 11.6 29 Oeste 45 Noroeste 0 -- -- 73
2021-01-30 17:00:00 12.4 32 Oeste 45 Oeste 0 -- -- 72
2021-01-30 16:00:00 11.5 26 Oeste 55 Oeste 0 -- -- 75
2021-01-30 15:00:00 12.7 32 Oeste 55 Oeste 0 -- -- 65
2021-01-30 14:00:00 12.3 29 Oeste 50 Oeste 0 -- -- 74
2021-01-30 13:00:00 11.9 27 Oeste 43 Oeste 0 -- -- 71
2021-01-30 12:00:00 11.7 23 Oeste 39 Oeste 0 -- -- 80
2021-01-30 11:00:00 11.1 19 Oeste 38 Oeste 0 -- -- 84
2021-01-30 10:00:00 10.5 21 Oeste 36 Oeste 0 -- -- 92
2021-01-30 09:00:00 10.6 20 Oeste 34 Oeste 0.4 -- -- 93
2021-01-30 08:00:00 10.8 12 Oeste 24 Sudoeste 0.4 -- -- 99
2021-01-30 07:00:00 10.6 17 Sudoeste 33 Sudoeste 0 -- -- 98
2021-01-30 06:00:00 10.9 19 Sudoeste 31 Sudoeste 0 -- -- 94
2021-01-30 05:00:00 11 11 Sudoeste 28 Sur 0 -- -- 94
2021-01-30 04:00:00 11 18 Sudoeste 27 Sudoeste 0 -- -- 95
2021-01-30 03:00:00 11.1 12 Sudoeste 17 Sudoeste 0 -- -- 98
2021-01-30 02:00:00 10.9 14 Sur 28 Sur 0 -- -- 100
2021-01-30 01:00:00 11 4 Sur 10 Oeste 0 -- -- 100
2021-01-30 00:00:00 11 3 Oeste 17 Oeste 0 -- -- 100